Time;durP1;ratioP1;P1;durP2;ratioP2;P2;SDS_P1;SDS_P2;PMS_P1;PMS_P2;Temp;Humidity;BMP_temperature;BMP_pressure;BME280_temperature;BME280_humidity;BME280_pressure;Samples;Min_cycle;Max_cycle;Signal;HPM_P1;HPM_P2
2022/12/21 00:00:52;;;;;;;59.92;28.80;;;;;;;-4.13;100.00;101774.72;4999616;28;19929;-76
2022/12/21 00:03:17;;;;;;;72.38;27.52;;;;;;;-3.71;100.00;101838.78;5002938;28;20504;-77
2022/12/21 00:05:43;;;;;;;56.15;26.38;;;;;;;-3.51;100.00;101849.75;5003774;28;20050;-78
2022/12/21 00:08:09;;;;;;;61.25;24.60;;;;;;;-2.94;100.00;101977.47;4998581;28;20140;-78
2022/12/21 00:10:34;;;;;;;55.78;26.25;;;;;;;-3.74;100.00;101804.31;4983609;28;20085;-79
2022/12/21 00:13:00;;;;;;;54.63;27.77;;;;;;;-2.58;100.00;101995.75;5003141;28;20519;-78
2022/12/21 00:15:25;;;;;;;53.22;26.73;;;;;;;-2.62;100.00;102001.47;5003323;28;20076;-79
2022/12/21 00:17:52;;;;;;;71.20;28.35;;;;;;;-3.07;100.00;101908.81;5002307;28;20038;-78
2022/12/21 00:20:17;;;;;;;64.45;26.38;;;;;;;-2.52;100.00;101985.09;4999609;28;20046;-78
2022/12/21 00:22:43;;;;;;;58.47;30.15;;;;;;;-2.60;100.00;102006.69;5003619;28;20103;-78
2022/12/21 00:25:08;;;;;;;49.00;25.48;;;;;;;-2.99;100.00;101918.94;5001780;28;20153;-77
2022/12/21 00:27:34;;;;;;;52.92;27.02;;;;;;;-3.48;100.00;101827.81;4999556;28;20088;-77
2022/12/21 00:29:59;;;;;;;66.03;33.33;;;;;;;-3.05;100.00;101962.09;5016707;28;20476;-79
2022/12/21 00:32:25;;;;;;;62.33;25.42;;;;;;;-3.17;100.00;101945.72;5001131;28;20547;-78
2022/12/21 00:34:50;;;;;;;57.40;27.35;;;;;;;-2.96;100.00;101985.03;5003340;28;20397;-77
2022/12/21 00:37:15;;;;;;;43.03;24.52;;;;;;;-4.06;100.00;101803.50;5003860;28;20417;-76
2022/12/21 00:39:41;;;;;;;55.45;23.88;;;;;;;-4.17;100.00;101806.88;4993295;28;20054;-79
2022/12/21 00:42:06;;;;;;;46.47;22.48;;;;;;;-3.99;100.00;101833.09;4999075;28;20049;-76
2022/12/21 00:44:32;;;;;;;53.40;26.33;;;;;;;-3.56;100.00;101854.50;4999242;28;20595;-76
2022/12/21 00:46:57;;;;;;;45.63;21.27;;;;;;;-3.89;100.00;101781.78;5001479;28;20747;-78
2022/12/21 00:49:23;;;;;;;51.60;22.55;;;;;;;-3.66;100.00;101811.84;5002041;28;20497;-76
2022/12/21 00:51:48;;;;;;;56.08;24.95;;;;;;;-4.12;100.00;101803.03;5000568;28;20054;-79
2022/12/21 00:54:13;;;;;;;56.00;26.70;;;;;;;-3.19;100.00;101926.72;4997967;28;20057;-79
2022/12/21 00:56:39;;;;;;;41.25;25.40;;;;;;;-3.24;100.00;101946.00;4998650;28;20465;-76
2022/12/21 00:59:04;;;;;;;58.28;26.05;;;;;;;-3.23;100.00;101948.69;5000647;28;20399;-78
2022/12/21 01:01:33;;;;;;;79.53;29.08;;;;;;;-4.19;100.00;101818.69;4987191;28;20064;-78
2022/12/21 01:03:59;;;;;;;60.67;24.25;;;;;;;-3.17;100.00;101967.94;5007774;28;20053;-78
2022/12/21 01:06:30;;;;;;;54.13;22.10;;;;;;;-3.54;100.00;101926.47;5003481;28;20041;-80
2022/12/21 01:08:57;;;;;;;54.08;23.73;;;;;;;-4.36;100.00;101778.84;5009212;28;20152;-78
2022/12/21 01:11:24;;;;;;;55.47;22.10;;;;;;;-4.23;100.00;101780.75;4980260;28;20115;-76
2022/12/21 01:13:50;;;;;;;51.08;26.30;;;;;;;-3.32;100.00;101965.94;4984409;28;20081;-76
2022/12/21 01:16:22;;;;;;;57.20;24.92;;;;;;;-3.32;100.00;101950.53;5001501;28;20053;-77
2022/12/21 01:18:48;;;;;;;76.95;26.05;;;;;;;-4.11;100.00;101775.72;4997263;28;20058;-77
2022/12/21 01:21:16;;;;;;;57.13;21.88;;;;;;;-3.71;100.00;101840.47;4982849;28;20803;-79
2022/12/21 01:23:42;;;;;;;68.90;28.02;;;;;;;-3.03;100.00;101951.94;5000440;28;20070;-78
2022/12/21 01:26:07;;;;;;;60.95;25.80;;;;;;;-3.63;100.00;101824.94;4990016;28;20153;-78
2022/12/21 01:28:32;;;;;;;54.42;23.38;;;;;;;-3.05;100.00;101920.13;4993415;28;20046;-78
2022/12/21 01:31:03;;;;;;;58.80;26.85;;;;;;;-3.57;100.00;101870.69;4972191;28;20787;-78
2022/12/21 01:33:29;;;;;;;58.17;24.88;;;;;;;-2.97;100.00;101950.78;4981075;28;20037;-79
2022/12/21 01:35:54;;;;;;;44.38;24.00;;;;;;;-3.63;100.00;101832.63;4982599;28;20066;-78
2022/12/21 01:38:20;;;;;;;57.75;25.77;;;;;;;-3.04;100.00;101911.66;4985197;28;20116;-78
2022/12/21 01:40:46;;;;;;;59.30;25.58;;;;;;;-3.10;100.00;101909.47;4983505;28;20096;-78
2022/12/21 01:43:38;;;;;;;57.63;24.92;;;;;;;-3.85;100.00;101776.13;5001666;28;20041;-78
2022/12/21 01:46:06;;;;;;;54.30;23.95;;;;;;;-3.77;100.00;101771.66;4993744;28;20046;-77
2022/12/21 01:48:37;;;;;;;57.15;25.98;;;;;;;-3.07;100.00;101876.34;4968948;28;20040;-77
2022/12/21 01:51:06;;;;;;;47.83;25.83;;;;;;;-4.04;100.00;101745.59;4982437;28;20061;-76
2022/12/21 01:53:39;;;;;;;52.63;25.50;;;;;;;-4.08;100.00;101725.59;5014975;28;20038;-77
2022/12/21 01:56:08;;;;;;;65.80;28.42;;;;;;;-3.03;100.00;101908.31;4967206;28;20042;-77
2022/12/21 01:58:35;;;;;;;57.25;23.15;;;;;;;-3.25;100.00;101870.69;4963284;28;20117;-76
2022/12/21 02:01:02;;;;;;;48.08;21.27;;;;;;;-4.14;100.00;101727.69;4972113;28;20205;-77
2022/12/21 02:03:37;;;;;;;46.13;20.67;;;;;;;-3.88;100.00;101788.72;4981647;28;20113;-78
2022/12/21 02:06:26;;;;;;;116.70;22.45;;;;;;;-3.62;100.00;101900.19;4969822;28;20069;-78
2022/12/21 02:08:52;;;;;;;45.80;20.65;;;;;;;-3.92;100.00;101817.44;4964156;28;20117;-78
2022/12/21 02:11:17;;;;;;;53.92;20.73;;;;;;;-4.32;100.00;101749.25;4964903;28;20594;-76
2022/12/21 02:13:43;;;;;;;45.17;17.48;;;;;;;-4.12;100.00;101781.59;4975911;28;20047;-78
2022/12/21 02:16:19;;;;;;;48.17;23.60;;;;;;;-4.46;100.00;101723.41;4990768;28;20043;-77
2022/12/21 02:19:08;;;;;;;48.78;22.80;;;;;;;-4.20;100.00;101731.41;4963311;28;20113;-79
2022/12/21 02:21:46;;;;;;;37.70;18.63;;;;;;;-3.20;100.00;101892.47;4979654;28;20054;-78
2022/12/21 02:24:55;;;;;;;43.35;22.40;;;;;;;-3.97;100.00;101746.97;4980731;28;20027;-78
2022/12/21 02:27:45;;;;;;;41.88;19.95;;;;;;;-3.25;100.00;101891.22;4967997;28;20046;-78
2022/12/21 02:30:21;;;;;;;43.28;20.10;;;;;;;-3.29;100.00;101878.00;4981852;28;20034;-78
2022/12/21 02:33:48;;;;;;;48.13;22.45;;;;;;;-3.04;100.00;101868.91;4988718;28;20552;-77
2022/12/21 02:36:26;;;;;;;46.72;20.25;;;;;;;-3.00;100.00;101872.59;4890629;29;20405;-76
2022/12/21 02:39:10;;;;;;;53.05;24.17;;;;;;;-2.97;100.00;101858.34;4899395;29;20071;-77
2022/12/21 02:41:59;;;;;;;43.85;20.33;;;;;;;-2.85;100.00;101850.69;4934423;28;20373;-77
2022/12/21 02:44:25;;;;;;;56.35;21.58;;;;;;;-2.92;100.00;101848.41;4965718;28;20055;-78
2022/12/21 02:47:12;;;;;;;44.15;20.10;;;;;;;-2.92;100.00;101850.97;4976712;28;20046;-77
2022/12/21 02:49:53;;;;;;;54.40;21.90;;;;;;;-2.90;100.00;101845.94;4969162;28;20050;-76
2022/12/21 02:52:43;;;;;;;43.63;19.75;;;;;;;-2.82;100.00;101852.59;4977684;28;20486;-77
2022/12/21 02:55:12;;;;;;;51.72;22.35;;;;;;;-3.21;100.00;101776.84;4971879;28;20077;-78
2022/12/21 02:57:40;;;;;;;53.25;26.58;;;;;;;-3.29;100.00;101754.84;4967844;28;20415;-78
2022/12/21 03:00:11;;;;;;;48.20;19.17;;;;;;;-3.24;100.00;101772.38;4968181;28;20486;-80
2022/12/21 03:06:24;;;;;;;51.03;24.70;;;;;;;-2.88;100.00;101835.03;4938211;28;20131;-78
2022/12/21 03:09:08;;;;;;;45.80;22.20;;;;;;;-2.79;100.00;101820.34;4982995;28;20066;-76
2022/12/21 03:11:46;;;;;;;52.00;22.65;;;;;;;-3.30;100.00;101715.44;4980065;28;20050;-76
2022/12/21 03:14:25;;;;;;;40.15;18.58;;;;;;;-3.90;100.00;101650.94;4993891;28;20054;-79
2022/12/21 03:17:05;;;;;;;44.92;21.92;;;;;;;-3.38;100.00;101803.75;4970127;28;20121;-78
2022/12/21 03:19:40;;;;;;;43.78;22.13;;;;;;;-3.15;100.00;101796.97;4977931;28;20054;-78
2022/12/21 03:22:11;;;;;;;46.40;24.88;;;;;;;-3.92;100.00;101625.16;4988211;28;20050;-78
2022/12/21 03:24:48;;;;;;;47.22;20.20;;;;;;;-3.04;100.00;101776.47;4989184;28;20055;-78
2022/12/21 03:27:26;;;;;;;42.50;16.75;;;;;;;-3.04;100.00;101776.47;4970529;28;20030;-77
2022/12/21 03:30:04;;;;;;;61.15;21.60;;;;;;;-3.04;100.00;101775.59;4981709;28;20073;-77
2022/12/21 03:32:40;;;;;;;42.00;18.42;;;;;;;-2.93;100.00;101797.81;4969320;28;20545;-76
2022/12/21 03:35:14;;;;;;;46.50;20.40;;;;;;;-3.14;100.00;101788.47;4970061;28;20761;-78
2022/12/21 03:37:42;;;;;;;61.25;20.95;;;;;;;-3.21;100.00;101716.16;4973350;28;20154;-78
2022/12/21 03:40:13;;;;;;;46.50;21.50;;;;;;;-3.09;100.00;101729.03;4969072;28;20065;-77
2022/12/21 03:42:44;;;;;;;47.38;21.65;;;;;;;-2.67;100.00;101778.34;4979826;28;20046;-78
2022/12/21 03:45:13;;;;;;;58.08;23.10;;;;;;;-3.74;100.00;101638.53;4985243;28;20042;-78
2022/12/21 03:48:07;;;;;;;56.60;21.05;;;;;;;-2.86;100.00;101774.38;4984864;28;20042;-79
2022/12/21 03:50:37;;;;;;;46.60;17.65;;;;;;;-3.84;100.00;101585.66;4973247;28;20154;-78
2022/12/21 03:53:22;;;;;;;45.63;18.02;;;;;;;-2.97;100.00;101772.72;4982790;28;20087;-78
2022/12/21 03:55:49;;;;;;;41.60;20.77;;;;;;;-4.11;100.00;101594.66;4994131;28;20342;-78
2022/12/21 03:58:15;;;;;;;50.60;19.35;;;;;;;-3.68;100.00;101638.97;5001442;28;20045;-78
2022/12/21 04:00:51;;;;;;;49.05;22.30;;;;;;;-3.69;100.00;101596.19;4984116;28;20064;-78
2022/12/21 04:03:32;;;;;;;44.40;22.08;;;;;;;-3.62;100.00;101607.78;5003166;28;20060;-78
2022/12/21 04:06:03;;;;;;;43.58;19.27;;;;;;;-2.64;100.00;101770.91;5003724;28;20400;-79
2022/12/21 04:08:30;;;;;;;50.75;19.55;;;;;;;-3.44;100.00;101690.41;4995267;28;20395;-78
2022/12/21 04:10:57;;;;;;;46.40;19.23;;;;;;;-2.80;100.00;101767.16;5001523;28;20053;-78
2022/12/21 04:13:23;;;;;;;44.08;17.85;;;;;;;-3.08;100.00;101725.66;5000395;28;20113;-78
2022/12/21 04:16:03;;;;;;;48.40;21.27;;;;;;;-3.51;100.00;101648.00;4997058;28;20042;-78
2022/12/21 04:21:13;;;;;;;44.80;22.58;;;;;;;-3.74;100.00;101607.75;4984632;28;20104;-77
2022/12/21 04:29:08;;;;;;;39.30;21.80;;;;;;;-3.61;100.00;101618.19;5002278;28;20065;-77
2022/12/21 04:31:33;;;;;;;37.22;18.50;;;;;;;-3.48;100.00;101634.50;4998935;28;20057;-78
2022/12/21 04:33:58;;;;;;;54.55;22.35;;;;;;;-2.72;100.00;101756.56;5001337;28;20729;-78
2022/12/21 04:39:08;;;;;;;45.42;19.42;;;;;;;-3.57;100.00;101613.28;5003009;28;20103;-78
2022/12/21 04:41:34;;;;;;;42.78;19.73;;;;;;;-2.99;100.00;101726.38;5000560;28;20760;-76
2022/12/21 04:43:59;;;;;;;50.53;18.77;;;;;;;-2.83;100.00;101741.25;5001166;28;20064;-77
2022/12/21 04:46:25;;;;;;;50.10;18.95;;;;;;;-2.76;100.00;101743.50;5001541;28;20557;-77
2022/12/21 04:48:50;;;;;;;53.05;21.33;;;;;;;-3.59;100.00;101596.88;5001139;28;20053;-77
2022/12/21 04:51:18;;;;;;;49.35;22.33;;;;;;;-2.69;100.00;101765.41;4976864;28;20556;-77
2022/12/21 04:53:45;;;;;;;38.85;16.98;;;;;;;-2.90;100.00;101739.00;5000070;28;20227;-77
2022/12/21 04:56:10;;;;;;;48.08;20.98;;;;;;;-2.88;100.00;101739.09;4995342;28;20508;-77
2022/12/21 04:58:39;;;;;;;53.28;19.13;;;;;;;-2.60;100.00;101771.25;5001786;28;20053;-77
2022/12/21 05:01:13;;;;;;;48.42;19.42;;;;;;;-4.29;100.00;101472.81;4979078;28;20050;-78
2022/12/21 05:03:39;;;;;;;47.53;21.85;;;;;;;-2.92;100.00;101686.63;5002381;28;20081;-77
2022/12/21 05:06:05;;;;;;;39.47;19.45;;;;;;;-2.48;100.00;101763.56;4999284;28;20034;-79
2022/12/21 05:08:30;;;;;;;53.05;22.05;;;;;;;-2.52;100.00;101740.97;4997912;28;20058;-79
2022/12/21 05:11:06;;;;;;;47.45;22.25;;;;;;;-2.97;100.00;101757.31;4998610;28;20856;-76
2022/12/21 05:13:33;;;;;;;54.60;23.13;;;;;;;-3.31;100.00;101634.09;4994068;28;20083;-77
2022/12/21 05:16:02;;;;;;;46.22;20.17;;;;;;;-3.29;100.00;101623.94;4999256;28;20061;-77
2022/12/21 05:18:28;;;;;;;48.13;22.63;;;;;;;-2.80;100.00;101715.78;4998552;28;20038;-76
2022/12/21 05:20:55;;;;;;;49.67;22.08;;;;;;;-2.88;100.00;101713.44;4998050;28;20144;-77
2022/12/21 05:23:20;;;;;;;52.40;22.38;;;;;;;-2.80;100.00;101727.75;4997883;28;20057;-78
2022/12/21 05:25:45;;;;;;;42.05;21.27;;;;;;;-3.04;100.00;101685.72;4999784;28;20108;-78
2022/12/21 05:28:11;;;;;;;42.42;22.42;;;;;;;-2.68;100.00;101725.19;4997138;28;20058;-79
2022/12/21 05:30:36;;;;;;;47.20;22.35;;;;;;;-3.43;100.00;101640.88;4998613;28;20064;-78
2022/12/21 05:33:02;;;;;;;47.42;20.27;;;;;;;-2.86;100.00;101729.84;4997606;28;20034;-78
2022/12/21 05:35:27;;;;;;;57.25;22.80;;;;;;;-3.27;100.00;101692.56;4998571;28;20042;-78
2022/12/21 05:37:53;;;;;;;45.20;19.50;;;;;;;-3.11;100.00;101722.88;5000673;28;20050;-76
2022/12/21 05:40:18;;;;;;;55.70;22.80;;;;;;;-3.55;100.00;101694.69;5009258;28;20046;-78
2022/12/21 05:42:44;;;;;;;59.00;29.00;;;;;;;-3.03;100.00;101724.34;4996262;28;20062;-78
2022/12/21 05:45:09;;;;;;;48.65;20.60;;;;;;;-3.06;100.00;101724.13;4995363;28;20038;-78
2022/12/21 05:47:35;;;;;;;53.25;22.10;;;;;;;-3.06;100.00;101694.97;4996526;28;20056;-77
2022/12/21 05:50:00;;;;;;;52.05;22.27;;;;;;;-3.16;100.00;101670.31;4997694;28;20099;-78
2022/12/21 05:52:26;;;;;;;52.97;19.85;;;;;;;-3.57;100.00;101596.22;4982233;28;20049;-76
2022/12/21 05:54:51;;;;;;;50.75;22.65;;;;;;;-3.09;100.00;101687.94;4996141;28;20061;-79
2022/12/21 05:57:17;;;;;;;53.25;26.13;;;;;;;-2.64;100.00;101750.34;4996879;28;20041;-77
2022/12/21 05:59:42;;;;;;;49.05;22.17;;;;;;;-2.61;100.00;101738.59;4992767;28;20548;-79
2022/12/21 06:02:08;;;;;;;63.53;22.42;;;;;;;-2.60;100.00;101744.63;5001811;28;20377;-77
2022/12/21 06:04:33;;;;;;;54.28;23.70;;;;;;;-3.17;100.00;101707.00;5001013;28;20049;-77
2022/12/21 06:06:59;;;;;;;41.00;22.27;;;;;;;-3.59;100.00;101602.88;4995653;28;20045;-78
2022/12/21 06:09:24;;;;;;;61.60;24.35;;;;;;;-3.61;100.00;101600.22;4995891;28;20401;-77
2022/12/21 06:11:50;;;;;;;42.95;20.67;;;;;;;-2.88;100.00;101754.50;4996513;28;20393;-78
2022/12/21 06:14:15;;;;;;;50.50;22.90;;;;;;;-3.11;100.00;101725.44;5000783;28;20064;-76
2022/12/21 06:16:41;;;;;;;52.33;20.02;;;;;;;-2.67;100.00;101760.38;5000373;28;20049;-77
2022/12/21 06:19:07;;;;;;;51.38;23.65;;;;;;;-2.70;100.00;101760.16;5001166;28;20052;-78
2022/12/21 06:21:32;;;;;;;57.78;27.30;;;;;;;-2.62;100.00;101757.38;4999207;28;20041;-76
2022/12/21 06:23:58;;;;;;;51.40;21.80;;;;;;;-2.51;100.00;101757.28;4982103;28;20534;-76
2022/12/21 06:26:23;;;;;;;52.00;25.45;;;;;;;-2.69;100.00;101726.88;4996962;28;20038;-78
2022/12/21 06:28:51;;;;;;;51.35;21.75;;;;;;;-3.44;100.00;101603.19;4997825;28;20047;-77
2022/12/21 06:31:18;;;;;;;52.88;22.25;;;;;;;-2.89;100.00;101729.63;4997773;28;20053;-78
2022/12/21 06:33:43;;;;;;;56.90;23.63;;;;;;;-3.19;100.00;101634.13;4996161;28;20513;-79
2022/12/21 06:36:10;;;;;;;51.78;22.25;;;;;;;-2.61;100.00;101733.47;5001671;28;20093;-78
2022/12/21 06:38:36;;;;;;;62.42;24.88;;;;;;;-3.43;100.00;101556.19;4999567;28;20573;-76
2022/12/21 06:41:05;;;;;;;54.97;23.20;;;;;;;-2.64;100.00;101705.00;5001206;28;20141;-76
2022/12/21 06:43:32;;;;;;;66.65;23.67;;;;;;;-2.73;100.00;101660.63;4995084;28;20073;-77
2022/12/21 06:46:01;;;;;;;65.55;24.98;;;;;;;-2.68;100.00;101671.25;5001569;28;20073;-76
2022/12/21 06:48:28;;;;;;;48.67;24.55;;;;;;;-3.36;100.00;101590.91;4998960;28;20465;-76
2022/12/21 06:50:55;;;;;;;58.03;26.70;;;;;;;-2.90;100.00;101703.06;4991279;28;20042;-77
2022/12/21 06:53:23;;;;;;;67.97;24.48;;;;;;;-2.76;100.00;101681.88;4999065;28;20050;-78
2022/12/21 06:55:49;;;;;;;50.42;24.60;;;;;;;-3.19;100.00;101586.22;4973253;28;20969;-76
2022/12/21 06:58:15;;;;;;;52.08;25.45;;;;;;;-2.67;100.00;101680.72;4993055;28;20077;-77
2022/12/21 07:00:40;;;;;;;50.88;24.10;;;;;;;-3.05;100.00;101605.22;4980997;28;20759;-77
2022/12/21 07:03:06;;;;;;;74.78;28.85;;;;;;;-2.34;100.00;101696.06;4978308;28;20039;-76
2022/12/21 07:05:31;;;;;;;58.08;26.40;;;;;;;-3.24;100.00;101536.25;4988981;28;20739;-76
2022/12/21 07:07:57;;;;;;;54.10;23.17;;;;;;;-2.78;100.00;101639.75;4989450;28;20450;-77
2022/12/21 07:10:22;;;;;;;54.55;24.50;;;;;;;-3.62;100.00;101528.28;4989829;28;20058;-78
2022/12/21 07:12:47;;;;;;;47.97;24.17;;;;;;;-4.25;100.00;101437.28;4989392;28;20061;-78
2022/12/21 07:15:13;;;;;;;51.25;22.20;;;;;;;-2.95;100.00;101647.00;4987942;28;20072;-78
2022/12/21 07:17:39;;;;;;;43.80;24.20;;;;;;;-2.65;100.00;101685.19;5001529;28;20103;-80
2022/12/21 07:20:05;;;;;;;53.80;22.85;;;;;;;-2.57;100.00;101686.66;4993709;28;20054;-78
2022/12/21 07:22:30;;;;;;;56.55;25.00;;;;;;;-3.20;100.00;101563.03;4996627;28;20096;-77
2022/12/21 07:24:56;;;;;;;68.90;23.90;;;;;;;-3.15;100.00;101563.38;5000455;28;20514;-79
2022/12/21 07:27:21;;;;;;;50.03;22.95;;;;;;;-2.41;100.00;101677.50;5007637;28;20138;-77
2022/12/21 07:29:47;;;;;;;53.28;24.02;;;;;;;-2.35;100.00;101708.78;5001324;28;20101;-78
2022/12/21 07:32:12;;;;;;;42.03;20.15;;;;;;;-2.27;100.00;101710.25;4999476;28;20052;-77
2022/12/21 07:34:38;;;;;;;45.65;21.83;;;;;;;-2.59;100.00;101647.13;4998588;28;20418;-78
2022/12/21 07:37:03;;;;;;;52.47;23.67;;;;;;;-2.48;100.00;101657.28;4998130;28;20049;-77
2022/12/21 07:39:29;;;;;;;47.47;21.15;;;;;;;-2.52;100.00;101660.44;5011097;28;20045;-78
2022/12/21 07:41:54;;;;;;;39.58;18.02;;;;;;;-2.40;100.00;101662.19;4999145;28;20796;-76
2022/12/21 07:44:19;;;;;;;51.33;22.00;;;;;;;-2.79;100.00;101612.31;4997842;28;20054;-77
2022/12/21 07:46:45;;;;;;;44.75;22.52;;;;;;;-2.38;100.00;101696.63;4999059;28;20050;-77
2022/12/21 07:49:10;;;;;;;53.05;23.17;;;;;;;-2.95;100.00;101611.03;5001516;28;20584;-77
2022/12/21 07:51:36;;;;;;;49.63;21.85;;;;;;;-2.50;100.00;101694.84;5002815;28;20572;-77
2022/12/21 07:54:01;;;;;;;55.83;23.80;;;;;;;-3.49;100.00;101538.69;5000534;28;20501;-76
2022/12/21 07:56:27;;;;;;;42.08;21.60;;;;;;;-2.52;100.00;101666.47;5000267;28;20061;-77
2022/12/21 07:58:52;;;;;;;43.22;20.48;;;;;;;-2.39;100.00;101668.22;4977792;28;20081;-77
2022/12/21 08:01:18;;;;;;;50.08;23.38;;;;;;;-2.33;100.00;101690.13;4988709;28;20125;-77
2022/12/21 08:03:45;;;;;;;41.72;21.67;;;;;;;-2.53;100.00;101650.91;4988262;28;20110;-77
2022/12/21 08:06:11;;;;;;;44.53;24.27;;;;;;;-2.09;100.00;101692.66;4989136;28;20031;-78
2022/12/21 08:08:38;;;;;;;50.80;23.30;;;;;;;-2.35;100.00;101665.09;4995199;28;20050;-77
2022/12/21 08:11:09;;;;;;;46.05;23.38;;;;;;;-2.91;100.00;101572.84;4984228;28;20054;-77
2022/12/21 08:13:34;;;;;;;64.45;26.60;;;;;;;-2.34;100.00;101648.91;4985351;28;20490;-76
2022/12/21 08:16:05;;;;;;;59.20;20.77;;;;;;;-2.92;100.00;101542.84;4988011;28;20129;-76
2022/12/21 08:18:32;;;;;;;48.13;23.70;;;;;;;-2.36;100.00;101653.94;4985238;28;20434;-78
2022/12/21 08:20:58;;;;;;;51.05;19.25;;;;;;;-2.95;100.00;101555.47;4987919;28;20046;-77
2022/12/21 08:23:24;;;;;;;45.00;24.67;;;;;;;-2.10;100.00;101657.47;4981820;28;20530;-77
2022/12/21 08:25:50;;;;;;;47.92;19.45;;;;;;;-2.13;100.00;101634.13;4984103;28;20053;-78
2022/12/21 08:28:16;;;;;;;50.40;21.75;;;;;;;-1.88;100.00;101695.00;4984557;28;20778;-78
2022/12/21 08:30:41;;;;;;;52.05;25.17;;;;;;;-1.97;100.00;101651.50;4980222;28;20394;-77
2022/12/21 08:33:09;;;;;;;49.17;19.42;;;;;;;-1.84;100.00;101643.88;4980699;28;20076;-76
2022/12/21 08:35:35;;;;;;;56.70;24.63;;;;;;;-1.77;100.00;101669.22;4996186;28;20079;-78
2022/12/21 08:38:00;;;;;;;40.80;20.48;;;;;;;-1.71;100.00;101682.53;4996889;28;20552;-77
2022/12/21 08:40:26;;;;;;;55.78;21.83;;;;;;;-1.87;100.00;101676.19;4998223;28;20064;-77
2022/12/21 08:42:51;;;;;;;51.03;21.95;;;;;;;-2.57;100.00;101504.25;4997661;28;20080;-77
2022/12/21 08:45:17;;;;;;;48.25;20.33;;;;;;;-2.00;100.00;101635.88;4997933;28;20426;-77
2022/12/21 08:47:42;;;;;;;36.90;17.20;;;;;;;-1.76;100.00;101634.09;4983618;28;20504;-77
2022/12/21 08:50:08;;;;;;;46.60;23.48;;;;;;;-1.82;100.00;101610.53;4999633;28;20054;-78
2022/12/21 08:52:33;;;;;;;63.05;25.30;;;;;;;-2.39;100.00;101481.53;5000994;28;20038;-76
2022/12/21 08:54:59;;;;;;;49.80;20.88;;;;;;;-2.32;100.00;101493.09;4997954;28;20792;-78
2022/12/21 08:57:24;;;;;;;51.38;22.15;;;;;;;-2.26;100.00;101611.78;4995430;28;20637;-76
2022/12/21 08:59:50;;;;;;;60.42;23.40;;;;;;;-1.86;100.00;101631.69;4996747;28;20041;-76
2022/12/21 09:02:16;;;;;;;52.45;23.52;;;;;;;-2.04;100.00;101583.31;5000602;28;20684;-76
2022/12/21 09:04:41;;;;;;;43.28;18.63;;;;;;;-2.17;100.00;101589.28;4996062;28;20052;-77
2022/12/21 09:07:07;;;;;;;57.83;26.88;;;;;;;-3.03;100.00;101444.50;4998399;28;20505;-77
2022/12/21 09:09:33;;;;;;;63.45;22.40;;;;;;;-1.88;100.00;101611.00;5002759;28;20760;-79
2022/12/21 09:11:59;;;;;;;69.65;23.80;;;;;;;-2.27;100.00;101498.56;5002026;28;20069;-77
2022/12/21 09:14:25;;;;;;;43.25;21.80;;;;;;;-2.29;100.00;101459.91;5001950;28;20085;-78
2022/12/21 09:16:51;;;;;;;54.67;20.60;;;;;;;-2.36;100.00;101494.59;4999540;28;20077;-79
2022/12/21 09:19:17;;;;;;;39.67;22.15;;;;;;;-1.67;100.00;101565.25;5001758;28;20037;-76
2022/12/21 09:21:43;;;;;;;44.47;18.38;;;;;;;-1.49;100.00;101593.94;4993148;28;20613;-78
2022/12/21 09:24:08;;;;;;;41.53;18.50;;;;;;;-2.31;100.00;101527.44;4981142;28;20052;-77
2022/12/21 09:26:34;;;;;;;39.78;17.83;;;;;;;-1.83;100.00;101537.59;4988536;28;20080;-79
2022/12/21 09:28:59;;;;;;;43.75;22.65;;;;;;;-2.08;100.00;101462.16;4997047;28;20473;-78
2022/12/21 09:31:25;;;;;;;38.42;17.80;;;;;;;-2.28;100.00;101456.53;4980941;28;20046;-76
2022/12/21 09:33:53;;;;;;;35.97;17.67;;;;;;;-1.47;100.00;101563.16;4997513;28;20493;-75
2022/12/21 09:36:19;;;;;;;37.17;17.30;;;;;;;-1.53;100.00;101492.44;4996050;28;20565;-77
2022/12/21 09:38:44;;;;;;;48.08;18.52;;;;;;;-2.13;100.00;101408.75;4997687;28;20069;-76
2022/12/21 09:41:54;;;;;;;36.92;17.92;;;;;;;-1.15;100.00;101550.75;4997589;28;20054;-76
2022/12/21 09:44:25;;;;;;;53.85;22.58;;;;;;;-0.95;100.00;101551.13;4943475;28;20123;-75
2022/12/21 09:46:54;;;;;;;50.00;21.65;;;;;;;-1.56;100.00;101476.81;4989023;28;20046;-76
2022/12/21 09:49:25;;;;;;;48.38;20.73;;;;;;;-1.63;100.00;101510.66;4996850;28;20137;-77
2022/12/21 09:51:57;;;;;;;41.13;21.25;;;;;;;-1.56;100.00;101514.53;4993627;28;20046;-78
2022/12/21 09:54:34;;;;;;;51.97;21.40;;;;;;;-1.41;100.00;101514.66;4997885;28;20042;-76
2022/12/21 09:56:59;;;;;;;50.83;22.77;;;;;;;-1.96;100.00;101411.56;4996659;28;20168;-76
2022/12/21 09:59:25;;;;;;;41.38;18.23;;;;;;;-1.89;100.00;101423.16;4997677;28;20637;-77
2022/12/21 10:02:11;;;;;;;38.70;20.05;;;;;;;-1.91;100.00;101425.59;4996383;28;20069;-78
2022/12/21 10:04:55;;;;;;;33.85;18.83;;;;;;;-1.29;100.00;101533.47;4995002;28;20536;-77
2022/12/21 10:07:58;;;;;;;43.30;17.70;;;;;;;-1.34;100.00;101540.00;4997820;28;20123;-77
2022/12/21 10:10:34;;;;;;;35.28;18.63;;;;;;;-2.18;100.00;101342.38;4997409;28;20060;-77
2022/12/21 10:13:18;;;;;;;31.08;17.58;;;;;;;-0.99;100.00;101537.16;4997665;28;20042;-77
2022/12/21 10:16:05;;;;;;;36.65;18.27;;;;;;;-1.77;100.00;101380.22;5001509;28;20053;-77
2022/12/21 10:18:42;;;;;;;40.53;16.75;;;;;;;-1.28;100.00;101494.97;4995923;28;20404;-79
2022/12/21 10:21:39;;;;;;;68.55;23.30;;;;;;;-1.14;100.00;101537.06;4998172;28;20060;-78
2022/12/21 10:24:11;;;;;;;34.17;17.27;;;;;;;-1.83;100.00;101379.81;5004195;28;20141;-77
2022/12/21 10:26:38;;;;;;;34.00;18.67;;;;;;;-1.57;100.00;101400.44;5000606;28;20124;-76
2022/12/21 10:29:12;;;;;;;35.10;16.20;;;;;;;-0.82;100.00;101507.34;4998536;28;20042;-77
2022/12/21 10:31:45;;;;;;;31.48;17.42;;;;;;;-1.13;100.00;101489.00;4995745;28;20041;-77
2022/12/21 10:34:29;;;;;;;45.13;20.25;;;;;;;-1.93;100.00;101384.34;4994117;28;20589;-78
2022/12/21 10:37:00;;;;;;;43.90;18.88;;;;;;;-1.00;100.00;101494.16;4992518;28;20042;-76
2022/12/21 10:39:26;;;;;;;36.78;16.42;;;;;;;-1.23;100.00;101461.78;4998448;28;20057;-78
2022/12/21 10:42:24;;;;;;;70.13;18.77;;;;;;;-0.97;100.00;101485.75;4998461;28;20129;-78
2022/12/21 10:44:51;;;;;;;41.78;21.95;;;;;;;-1.22;100.00;101449.78;4998228;28;20050;-78
2022/12/21 10:47:19;;;;;;;50.40;19.13;;;;;;;-0.89;100.00;101466.50;4998911;28;20050;-77
2022/12/21 10:50:12;;;;;;;41.63;18.35;;;;;;;-1.25;100.00;101370.69;4994251;28;20049;-77
2022/12/21 10:52:39;;;;;;;35.13;20.37;;;;;;;-1.41;100.00;101502.66;4995997;28;20148;-77
2022/12/21 10:55:17;;;;;;;39.25;20.33;;;;;;;-1.40;100.00;101408.34;4991449;28;20057;-78
2022/12/21 10:57:45;;;;;;;48.53;19.92;;;;;;;-1.87;100.00;101401.88;4988041;28;20082;-77
2022/12/21 11:00:29;;;;;;;45.30;18.23;;;;;;;-1.67;100.00;101373.97;4995871;28;20033;-77
2022/12/21 11:02:57;;;;;;;43.22;18.70;;;;;;;-1.98;100.00;101367.72;4995471;28;20063;-77
2022/12/21 11:05:38;;;;;;;55.08;19.55;;;;;;;-2.01;100.00;101340.94;4980376;28;20070;-77
2022/12/21 11:08:12;;;;;;;63.35;21.25;;;;;;;-1.39;100.00;101482.19;4996187;28;20046;-78
2022/12/21 11:10:39;;;;;;;61.67;20.58;;;;;;;-2.05;100.00;101411.81;4996682;28;20081;-76
2022/12/21 11:13:05;;;;;;;37.88;17.13;;;;;;;-1.45;100.00;101464.66;4995812;28;20452;-77
2022/12/21 11:15:31;;;;;;;40.95;21.88;;;;;;;-1.89;100.00;101344.31;4995033;28;20030;-78
2022/12/21 11:17:58;;;;;;;39.33;21.30;;;;;;;-1.02;100.00;101449.38;4996642;28;20041;-78
2022/12/21 11:20:24;;;;;;;45.55;21.83;;;;;;;-1.32;100.00;101420.88;4994860;28;20052;-76
2022/12/21 11:22:54;;;;;;;68.35;26.35;;;;;;;-1.31;100.00;101398.63;4998833;28;20073;-76
2022/12/21 11:25:26;;;;;;;46.53;22.17;;;;;;;-1.41;100.00;101434.84;5004548;28;20497;-78
2022/12/21 11:27:58;;;;;;;42.13;21.10;;;;;;;-1.94;100.00;101423.72;5000407;28;20066;-79